Latest  Newer  Older  Last 2 hours animation  Current image  Latest image 
Rain/snow radar  Infrared sat images 
Real-time lightning map

All time is UTC (add 2 hours to UTC in wintertime, 3 hours to UTC in DST for Latvia local time)

2018/06/23 09:20 EVRA 230920Z 23009KT 9999 FEW034CB BKN040 18/08 Q1011 NOSIG
2018/06/23 09:20 EVLA 230920Z AUTO 28005KT 230V320 9999 FEW068/// SCT078/// BKN120/// 16/09 Q1011
2018/06/23 09:20 EVVA 230920Z AUTO 27009KT 240V300 CAVOK 15/09 Q1011
2018/06/23 09:20 EYKA 230920Z 23006KT 150V270 9999 BKN043 18/06 Q1012
2018/06/23 09:20 EYPA 230920Z VRB03KT 9999 SCT049 BKN060 14/09 Q1012
2018/06/23 09:20 EYSA 230920Z 24011G23KT 210V270 9999 VCSH FEW036CB BKN048 15/08 Q1012 BLU TEMPO 5000 SHRA SCT020CB WHT
2018/06/23 09:20 EYVI 230920Z 33006KT 290V010 9999 -SHRA BKN035CB 14/09 Q1013 NOSIG
2018/06/23 07:50 EEKA 230750Z 22007KT 9999 SCT027 14/08 Q1009
2018/06/23 08:50 EEKE 230850Z 24010KT 9999 FEW030 SCT035TCU 15/09 Q1010
2018/06/22 12:50 EEPU 221250Z 22026G37KT 9999 BKN018 13/09 Q1000
2018/06/23 09:20 EETN 230920Z 24012KT 9999 FEW035CB 16/08 Q1010 NOSIG
2018/06/23 08:50 EETU 230850Z AUTO 23008KT 200V260 9999 SCT043/// BKN059/// 17/06 Q1011
   RIGA AIRPORT     EVRA               56 55N  023 58E   10   X     T          6 LV
   LIEPAJA INTL     EVLA        26406  56 31N  021 06E    4   X                8 LV
   VENTPILS         EVVA               57 21N  021 33E    6   X                8 LV
   KAUNAS           EYKA               54 54N  023 55E   77   X     T          6 LT
   PALANGA INTL     EYPA               55 55N  021 03E   10   X                6 LT
   SIAULIAI INTL    EYSA               55 54N  023 24E  135   X     T          6 LT
   VILNIUS INTL     EYVI        26730  54 38N  025 17E  197   X     T          6 LT
   KARDLA           EEKA        26116  58 59N  022 50E    4   X                8 EE
   KURESSAARE       EEKE               58 14N  022 31E    4   X                8 EE
   PARNU            EEPU               58 25N  024 28E   14   X                8 EE
   TALLINN          EETN        26038  59 24N  024 49E   40   X     T          8 EE
   TARTU            EETU               58 19N  026 41E   67   X                8 EE

cloud coverage image from sat24.com and METAR data from weather.noaa.gov